sensor_id;sensor_type;location;lat;lon;timestamp;temperature;humidity
35613;DHT22;22054;51.646;7.078;2023-06-14T00:01:07;19.40;28.10
35613;DHT22;22054;51.646;7.078;2023-06-14T00:03:34;19.40;13.70
35613;DHT22;22054;51.646;7.078;2023-06-14T00:06:00;19.40;20.90
35613;DHT22;22054;51.646;7.078;2023-06-14T00:08:26;19.40;30.00
35613;DHT22;22054;51.646;7.078;2023-06-14T00:10:52;19.30;3.70
35613;DHT22;22054;51.646;7.078;2023-06-14T00:13:25;19.40;17.30
35613;DHT22;22054;51.646;7.078;2023-06-14T00:15:51;19.20;38.60
35613;DHT22;22054;51.646;7.078;2023-06-14T00:18:20;19.30;48.80
35613;DHT22;22054;51.646;7.078;2023-06-14T00:20:49;19.20;27.80
35613;DHT22;22054;51.646;7.078;2023-06-14T00:23:15;19.20;23.10
35613;DHT22;22054;51.646;7.078;2023-06-14T00:25:41;19.30;12.20
35613;DHT22;22054;51.646;7.078;2023-06-14T00:28:07;19.10;8.90
35613;DHT22;22054;51.646;7.078;2023-06-14T00:30:34;19.10;15.60
35613;DHT22;22054;51.646;7.078;2023-06-14T00:33:01;19.10;1.00
35613;DHT22;22054;51.646;7.078;2023-06-14T00:35:27;19.10;16.90
35613;DHT22;22054;51.646;7.078;2023-06-14T00:37:53;19.00;5.60
35613;DHT22;22054;51.646;7.078;2023-06-14T00:40:20;19.00;13.70
35613;DHT22;22054;51.646;7.078;2023-06-14T00:42:47;19.00;7.50
35613;DHT22;22054;51.646;7.078;2023-06-14T00:45:16;19.00;9.50
35613;DHT22;22054;51.646;7.078;2023-06-14T00:47:42;19.00;15.50
35613;DHT22;22054;51.646;7.078;2023-06-14T00:50:09;18.90;17.70
35613;DHT22;22054;51.646;7.078;2023-06-14T00:52:35;18.80;12.10
35613;DHT22;22054;51.646;7.078;2023-06-14T00:55:05;18.80;24.70
35613;DHT22;22054;51.646;7.078;2023-06-14T00:57:31;18.70;34.00
35613;DHT22;22054;51.646;7.078;2023-06-14T00:59:57;18.90;33.80
35613;DHT22;22054;51.646;7.078;2023-06-14T01:02:23;18.60;47.20
35613;DHT22;22054;51.646;7.078;2023-06-14T01:04:49;18.60;31.30
35613;DHT22;22054;51.646;7.078;2023-06-14T01:07:20;18.50;25.10
35613;DHT22;22054;51.646;7.078;2023-06-14T01:09:58;18.80;28.80
35613;DHT22;22054;51.646;7.078;2023-06-14T01:12:39;18.60;29.60
35613;DHT22;22054;51.646;7.078;2023-06-14T01:15:13;18.60;29.60
35613;DHT22;22054;51.646;7.078;2023-06-14T01:17:40;18.50;22.00
35613;DHT22;22054;51.646;7.078;2023-06-14T01:20:10;18.70;31.60
35613;DHT22;22054;51.646;7.078;2023-06-14T01:23:01;18.50;30.70
35613;DHT22;22054;51.646;7.078;2023-06-14T01:25:27;18.50;30.30
35613;DHT22;22054;51.646;7.078;2023-06-14T01:27:55;18.70;24.30
35613;DHT22;22054;51.646;7.078;2023-06-14T01:30:23;18.30;31.70
35613;DHT22;22054;51.646;7.078;2023-06-14T01:32:51;18.20;34.20
35613;DHT22;22054;51.646;7.078;2023-06-14T01:35:17;18.30;38.90
35613;DHT22;22054;51.646;7.078;2023-06-14T01:37:43;18.20;46.30
35613;DHT22;22054;51.646;7.078;2023-06-14T01:40:09;18.20;39.30
35613;DHT22;22054;51.646;7.078;2023-06-14T01:42:36;18.20;49.60
35613;DHT22;22054;51.646;7.078;2023-06-14T01:45:06;18.10;87.60
35613;DHT22;22054;51.646;7.078;2023-06-14T01:47:32;18.10;57.80
35613;DHT22;22054;51.646;7.078;2023-06-14T01:49:58;18.10;49.50
35613;DHT22;22054;51.646;7.078;2023-06-14T01:52:24;18.30;92.40
35613;DHT22;22054;51.646;7.078;2023-06-14T01:54:50;18.30;48.70
35613;DHT22;22054;51.646;7.078;2023-06-14T01:57:16;18.10;76.90
35613;DHT22;22054;51.646;7.078;2023-06-14T01:59:41;18.00;73.10
35613;DHT22;22054;51.646;7.078;2023-06-14T02:02:07;18.00;62.00
35613;DHT22;22054;51.646;7.078;2023-06-14T02:04:33;18.10;69.70
35613;DHT22;22054;51.646;7.078;2023-06-14T02:06:59;17.90;79.30
35613;DHT22;22054;51.646;7.078;2023-06-14T02:09:25;17.90;73.20
35613;DHT22;22054;51.646;7.078;2023-06-14T02:11:50;18.00;74.70
35613;DHT22;22054;51.646;7.078;2023-06-14T02:14:16;17.80;74.70
35613;DHT22;22054;51.646;7.078;2023-06-14T02:16:42;17.90;76.50
35613;DHT22;22054;51.646;7.078;2023-06-14T02:19:16;17.90;91.30
35613;DHT22;22054;51.646;7.078;2023-06-14T02:21:43;17.80;91.00
35613;DHT22;22054;51.646;7.078;2023-06-14T02:24:09;17.80;84.90
35613;DHT22;22054;51.646;7.078;2023-06-14T02:26:35;17.80;84.00
35613;DHT22;22054;51.646;7.078;2023-06-14T02:29:03;17.80;80.50
35613;DHT22;22054;51.646;7.078;2023-06-14T02:31:31;17.80;98.00
35613;DHT22;22054;51.646;7.078;2023-06-14T02:33:57;17.60;99.90
35613;DHT22;22054;51.646;7.078;2023-06-14T02:36:22;17.60;99.90
35613;DHT22;22054;51.646;7.078;2023-06-14T02:38:48;17.40;99.90
35613;DHT22;22054;51.646;7.078;2023-06-14T02:41:14;17.70;99.90
35613;DHT22;22054;51.646;7.078;2023-06-14T02:43:39;17.60;99.90
35613;DHT22;22054;51.646;7.078;2023-06-14T02:46:05;17.40;99.90
35613;DHT22;22054;51.646;7.078;2023-06-14T02:48:31;17.50;99.90
35613;DHT22;22054;51.646;7.078;2023-06-14T02:50:57;17.40;99.90
35613;DHT22;22054;51.646;7.078;2023-06-14T02:53:22;17.50;99.90
35613;DHT22;22054;51.646;7.078;2023-06-14T02:55:48;17.30;99.90
35613;DHT22;22054;51.646;7.078;2023-06-14T02:58:14;17.50;99.90
35613;DHT22;22054;51.646;7.078;2023-06-14T03:00:39;17.30;99.90
35613;DHT22;22054;51.646;7.078;2023-06-14T03:03:06;17.50;99.90
35613;DHT22;22054;51.646;7.078;2023-06-14T03:05:48;17.30;99.90
35613;DHT22;22054;51.646;7.078;2023-06-14T03:08:15;17.30;99.90
35613;DHT22;22054;51.646;7.078;2023-06-14T03:10:42;17.30;99.90
35613;DHT22;22054;51.646;7.078;2023-06-14T03:13:08;17.30;99.90
35613;DHT22;22054;51.646;7.078;2023-06-14T03:15:36;17.30;99.90
35613;DHT22;22054;51.646;7.078;2023-06-14T03:18:01;17.30;99.90
35613;DHT22;22054;51.646;7.078;2023-06-14T03:20:29;17.20;99.90
35613;DHT22;22054;51.646;7.078;2023-06-14T03:22:55;17.10;99.90
35613;DHT22;22054;51.646;7.078;2023-06-14T03:25:20;17.10;99.90
35613;DHT22;22054;51.646;7.078;2023-06-14T03:27:47;17.00;99.90
35613;DHT22;22054;51.646;7.078;2023-06-14T03:30:13;17.10;99.90
35613;DHT22;22054;51.646;7.078;2023-06-14T03:32:39;17.10;99.90
35613;DHT22;22054;51.646;7.078;2023-06-14T03:35:04;17.10;99.90
35613;DHT22;22054;51.646;7.078;2023-06-14T03:37:31;17.10;99.90
35613;DHT22;22054;51.646;7.078;2023-06-14T03:39:56;17.10;99.90
35613;DHT22;22054;51.646;7.078;2023-06-14T03:42:22;17.10;99.90
35613;DHT22;22054;51.646;7.078;2023-06-14T03:44:48;17.40;99.90
35613;DHT22;22054;51.646;7.078;2023-06-14T03:47:14;17.20;99.90
35613;DHT22;22054;51.646;7.078;2023-06-14T03:49:40;17.30;99.90
35613;DHT22;22054;51.646;7.078;2023-06-14T03:52:06;17.10;99.90
35613;DHT22;22054;51.646;7.078;2023-06-14T03:54:31;17.10;99.90
35613;DHT22;22054;51.646;7.078;2023-06-14T03:56:58;17.00;99.90
35613;DHT22;22054;51.646;7.078;2023-06-14T03:59:24;17.20;99.90
35613;DHT22;22054;51.646;7.078;2023-06-14T04:01:51;16.90;99.90
35613;DHT22;22054;51.646;7.078;2023-06-14T04:04:16;17.10;99.90
35613;DHT22;22054;51.646;7.078;2023-06-14T04:06:43;17.40;99.90
35613;DHT22;22054;51.646;7.078;2023-06-14T04:09:09;17.10;99.90
35613;DHT22;22054;51.646;7.078;2023-06-14T04:11:34;17.30;99.90
35613;DHT22;22054;51.646;7.078;2023-06-14T04:14:01;17.10;99.90
35613;DHT22;22054;51.646;7.078;2023-06-14T04:16:27;17.20;99.90
35613;DHT22;22054;51.646;7.078;2023-06-14T04:18:54;17.20;99.90
35613;DHT22;22054;51.646;7.078;2023-06-14T04:21:20;17.20;99.90
35613;DHT22;22054;51.646;7.078;2023-06-14T04:23:46;17.30;99.90
35613;DHT22;22054;51.646;7.078;2023-06-14T04:26:11;17.30;99.90
35613;DHT22;22054;51.646;7.078;2023-06-14T04:28:37;17.30;99.90
35613;DHT22;22054;51.646;7.078;2023-06-14T04:31:06;17.40;99.90
35613;DHT22;22054;51.646;7.078;2023-06-14T04:33:36;17.40;99.90
35613;DHT22;22054;51.646;7.078;2023-06-14T04:38:52;17.50;99.90
35613;DHT22;22054;51.646;7.078;2023-06-14T04:41:20;17.60;99.90
35613;DHT22;22054;51.646;7.078;2023-06-14T04:43:51;17.60;99.90
35613;DHT22;22054;51.646;7.078;2023-06-14T04:46:18;17.60;99.90
35613;DHT22;22054;51.646;7.078;2023-06-14T04:48:44;17.60;99.90
35613;DHT22;22054;51.646;7.078;2023-06-14T04:51:11;17.60;99.90
35613;DHT22;22054;51.646;7.078;2023-06-14T04:53:36;17.60;99.90
35613;DHT22;22054;51.646;7.078;2023-06-14T04:56:02;17.70;99.90
35613;DHT22;22054;51.646;7.078;2023-06-14T04:58:29;17.70;99.90
35613;DHT22;22054;51.646;7.078;2023-06-14T05:00:55;18.00;99.90
35613;DHT22;22054;51.646;7.078;2023-06-14T05:03:21;17.70;99.90
35613;DHT22;22054;51.646;7.078;2023-06-14T05:05:49;17.80;99.90
35613;DHT22;22054;51.646;7.078;2023-06-14T05:08:16;17.90;99.90
35613;DHT22;22054;51.646;7.078;2023-06-14T05:10:41;17.90;99.90
35613;DHT22;22054;51.646;7.078;2023-06-14T05:13:07;18.20;99.90
35613;DHT22;22054;51.646;7.078;2023-06-14T05:15:33;18.20;99.90
35613;DHT22;22054;51.646;7.078;2023-06-14T05:17:59;17.80;99.90
35613;DHT22;22054;51.646;7.078;2023-06-14T05:20:25;17.40;3.50
35613;DHT22;22054;51.646;7.078;2023-06-14T05:22:54;16.90;99.90
35613;DHT22;22054;51.646;7.078;2023-06-14T05:25:20;16.50;1.00
35613;DHT22;22054;51.646;7.078;2023-06-14T05:27:46;16.20;1.00
35613;DHT22;22054;51.646;7.078;2023-06-14T05:30:12;16.00;1.00
35613;DHT22;22054;51.646;7.078;2023-06-14T05:32:39;15.90;2.90
35613;DHT22;22054;51.646;7.078;2023-06-14T05:35:05;15.80;1.00
35613;DHT22;22054;51.646;7.078;2023-06-14T05:37:31;15.80;99.90
35613;DHT22;22054;51.646;7.078;2023-06-14T05:39:57;16.10;1.00
35613;DHT22;22054;51.646;7.078;2023-06-14T05:42:22;15.80;1.00
35613;DHT22;22054;51.646;7.078;2023-06-14T05:44:48;16.10;1.00
35613;DHT22;22054;51.646;7.078;2023-06-14T05:47:14;16.40;99.90
35613;DHT22;22054;51.646;7.078;2023-06-14T05:49:43;16.70;1.00
35613;DHT22;22054;51.646;7.078;2023-06-14T05:52:09;16.90;1.00
35613;DHT22;22054;51.646;7.078;2023-06-14T05:54:35;17.10;1.00
35613;DHT22;22054;51.646;7.078;2023-06-14T05:57:01;17.30;1.00
35613;DHT22;22054;51.646;7.078;2023-06-14T05:59:27;17.40;99.90
35613;DHT22;22054;51.646;7.078;2023-06-14T06:01:53;17.60;1.00
35613;DHT22;22054;51.646;7.078;2023-06-14T06:04:20;17.70;1.00
35613;DHT22;22054;51.646;7.078;2023-06-14T06:06:45;17.90;99.90
35613;DHT22;22054;51.646;7.078;2023-06-14T06:09:12;17.90;1.00
35613;DHT22;22054;51.646;7.078;2023-06-14T06:11:39;18.10;1.00
35613;DHT22;22054;51.646;7.078;2023-06-14T06:14:05;18.20;1.00
35613;DHT22;22054;51.646;7.078;2023-06-14T06:16:31;18.50;99.90
35613;DHT22;22054;51.646;7.078;2023-06-14T06:18:56;18.40;99.90
35613;DHT22;22054;51.646;7.078;2023-06-14T06:21:22;18.50;99.90
35613;DHT22;22054;51.646;7.078;2023-06-14T06:23:48;18.80;1.00
35613;DHT22;22054;51.646;7.078;2023-06-14T06:26:13;18.70;99.90
35613;DHT22;22054;51.646;7.078;2023-06-14T06:28:39;18.20;99.90
35613;DHT22;22054;51.646;7.078;2023-06-14T06:31:05;18.20;99.90
35613;DHT22;22054;51.646;7.078;2023-06-14T06:33:30;17.80;99.90
35613;DHT22;22054;51.646;7.078;2023-06-14T06:35:56;17.70;1.00
35613;DHT22;22054;51.646;7.078;2023-06-14T06:38:22;17.60;1.00
35613;DHT22;22054;51.646;7.078;2023-06-14T06:40:47;17.90;1.00
35613;DHT22;22054;51.646;7.078;2023-06-14T06:43:13;18.00;1.00
35613;DHT22;22054;51.646;7.078;2023-06-14T06:45:39;18.20;1.00
35613;DHT22;22054;51.646;7.078;2023-06-14T06:48:05;18.40;99.90
35613;DHT22;22054;51.646;7.078;2023-06-14T06:50:31;18.60;1.00
35613;DHT22;22054;51.646;7.078;2023-06-14T06:52:57;18.80;99.90
35613;DHT22;22054;51.646;7.078;2023-06-14T06:55:33;18.80;1.00
35613;DHT22;22054;51.646;7.078;2023-06-14T06:57:59;19.10;91.80
35613;DHT22;22054;51.646;7.078;2023-06-14T07:00:25;19.20;1.00
35613;DHT22;22054;51.646;7.078;2023-06-14T07:02:52;19.40;1.00
35613;DHT22;22054;51.646;7.078;2023-06-14T07:05:20;19.50;1.00
35613;DHT22;22054;51.646;7.078;2023-06-14T07:07:45;19.70;1.00
35613;DHT22;22054;51.646;7.078;2023-06-14T07:10:11;19.70;1.00
35613;DHT22;22054;51.646;7.078;2023-06-14T07:12:37;19.80;1.00
35613;DHT22;22054;51.646;7.078;2023-06-14T07:15:05;19.90;1.00
35613;DHT22;22054;51.646;7.078;2023-06-14T07:17:32;20.10;99.90
35613;DHT22;22054;51.646;7.078;2023-06-14T07:22:35;20.30;99.90
35613;DHT22;22054;51.646;7.078;2023-06-14T07:25:02;20.40;99.90
35613;DHT22;22054;51.646;7.078;2023-06-14T07:27:33;20.40;99.90
35613;DHT22;22054;51.646;7.078;2023-06-14T07:30:12;20.50;99.90
35613;DHT22;22054;51.646;7.078;2023-06-14T07:32:39;20.70;99.90
35613;DHT22;22054;51.646;7.078;2023-06-14T07:35:05;20.80;99.90
35613;DHT22;22054;51.646;7.078;2023-06-14T07:37:31;20.90;99.90
35613;DHT22;22054;51.646;7.078;2023-06-14T07:39:57;21.00;96.00
35613;DHT22;22054;51.646;7.078;2023-06-14T07:42:25;21.10;69.40
35613;DHT22;22054;51.646;7.078;2023-06-14T07:45:02;21.20;72.60
35613;DHT22;22054;51.646;7.078;2023-06-14T07:47:29;21.20;26.50
35613;DHT22;22054;51.646;7.078;2023-06-14T07:49:55;21.50;38.80
35613;DHT22;22054;51.646;7.078;2023-06-14T07:52:20;21.40;20.70
35613;DHT22;22054;51.646;7.078;2023-06-14T07:57:22;21.40;10.90
35613;DHT22;22054;51.646;7.078;2023-06-14T07:59:48;21.50;1.00
35613;DHT22;22054;51.646;7.078;2023-06-14T08:02:13;21.60;14.00
35613;DHT22;22054;51.646;7.078;2023-06-14T08:04:39;21.80;1.00
35613;DHT22;22054;51.646;7.078;2023-06-14T08:07:05;21.80;1.00
35613;DHT22;22054;51.646;7.078;2023-06-14T08:09:31;21.90;1.00
35613;DHT22;22054;51.646;7.078;2023-06-14T08:11:56;22.00;1.00
35613;DHT22;22054;51.646;7.078;2023-06-14T08:14:22;22.10;1.00
35613;DHT22;22054;51.646;7.078;2023-06-14T08:16:48;22.10;1.00
35613;DHT22;22054;51.646;7.078;2023-06-14T08:19:14;22.10;1.00
35613;DHT22;22054;51.646;7.078;2023-06-14T08:21:42;22.10;1.00
35613;DHT22;22054;51.646;7.078;2023-06-14T08:24:10;22.10;1.00
35613;DHT22;22054;51.646;7.078;2023-06-14T08:26:38;22.30;1.00
35613;DHT22;22054;51.646;7.078;2023-06-14T08:31:40;22.30;1.00
35613;DHT22;22054;51.646;7.078;2023-06-14T08:34:05;22.20;1.00
35613;DHT22;22054;51.646;7.078;2023-06-14T08:36:31;22.20;1.00
35613;DHT22;22054;51.646;7.078;2023-06-14T08:38:57;22.20;1.00
35613;DHT22;22054;51.646;7.078;2023-06-14T08:41:23;22.30;1.00
35613;DHT22;22054;51.646;7.078;2023-06-14T08:46:25;22.30;1.00
35613;DHT22;22054;51.646;7.078;2023-06-14T08:48:53;22.40;1.00
35613;DHT22;22054;51.646;7.078;2023-06-14T08:51:25;22.60;1.00
35613;DHT22;22054;51.646;7.078;2023-06-14T08:54:04;22.50;1.00
35613;DHT22;22054;51.646;7.078;2023-06-14T08:56:30;22.70;1.00
35613;DHT22;22054;51.646;7.078;2023-06-14T08:58:57;22.80;1.00
35613;DHT22;22054;51.646;7.078;2023-06-14T09:01:26;23.00;1.00
35613;DHT22;22054;51.646;7.078;2023-06-14T09:03:52;22.90;1.00
35613;DHT22;22054;51.646;7.078;2023-06-14T09:06:20;23.00;1.00
35613;DHT22;22054;51.646;7.078;2023-06-14T09:08:48;22.90;1.00
35613;DHT22;22054;51.646;7.078;2023-06-14T09:11:17;22.90;1.00
35613;DHT22;22054;51.646;7.078;2023-06-14T09:16:14;23.10;1.00
35613;DHT22;22054;51.646;7.078;2023-06-14T09:18:43;23.20;1.00
35613;DHT22;22054;51.646;7.078;2023-06-14T09:23:41;23.40;1.00
35613;DHT22;22054;51.646;7.078;2023-06-14T09:26:09;23.60;1.00
35613;DHT22;22054;51.646;7.078;2023-06-14T09:28:42;23.60;1.00
35613;DHT22;22054;51.646;7.078;2023-06-14T09:33:45;23.60;1.00
35613;DHT22;22054;51.646;7.078;2023-06-14T09:38:46;23.70;1.00
35613;DHT22;22054;51.646;7.078;2023-06-14T09:41:17;23.70;1.00
35613;DHT22;22054;51.646;7.078;2023-06-14T09:43:43;23.80;1.00
35613;DHT22;22054;51.646;7.078;2023-06-14T09:46:10;23.70;1.00
35613;DHT22;22054;51.646;7.078;2023-06-14T09:48:36;23.90;1.00
35613;DHT22;22054;51.646;7.078;2023-06-14T09:51:02;23.90;1.00
35613;DHT22;22054;51.646;7.078;2023-06-14T09:53:29;23.90;1.00
35613;DHT22;22054;51.646;7.078;2023-06-14T09:55:55;24.00;1.00
35613;DHT22;22054;51.646;7.078;2023-06-14T09:58:23;24.00;1.00
35613;DHT22;22054;51.646;7.078;2023-06-14T10:00:51;24.10;1.00
35613;DHT22;22054;51.646;7.078;2023-06-14T10:03:21;24.10;1.00
35613;DHT22;22054;51.646;7.078;2023-06-14T10:05:50;24.20;1.00
35613;DHT22;22054;51.646;7.078;2023-06-14T10:08:16;24.10;1.00
35613;DHT22;22054;51.646;7.078;2023-06-14T10:10:43;24.20;1.00
35613;DHT22;22054;51.646;7.078;2023-06-14T10:13:10;24.40;1.00
35613;DHT22;22054;51.646;7.078;2023-06-14T10:15:54;24.60;1.00
35613;DHT22;22054;51.646;7.078;2023-06-14T10:18:42;24.70;1.00
35613;DHT22;22054;51.646;7.078;2023-06-14T10:23:41;24.70;1.00
35613;DHT22;22054;51.646;7.078;2023-06-14T10:26:17;24.60;1.00
35613;DHT22;22054;51.646;7.078;2023-06-14T10:28:59;24.60;1.00
35613;DHT22;22054;51.646;7.078;2023-06-14T10:32:07;24.50;1.00
35613;DHT22;22054;51.646;7.078;2023-06-14T10:34:27;24.50;1.00
35613;DHT22;22054;51.646;7.078;2023-06-14T10:37:12;24.50;1.00
35613;DHT22;22054;51.646;7.078;2023-06-14T10:39:45;24.60;1.00
35613;DHT22;22054;51.646;7.078;2023-06-14T10:42:31;24.70;1.00
35613;DHT22;22054;51.646;7.078;2023-06-14T10:44:57;24.90;1.00
35613;DHT22;22054;51.646;7.078;2023-06-14T10:47:33;25.20;1.00
35613;DHT22;22054;51.646;7.078;2023-06-14T10:50:09;25.30;1.00
35613;DHT22;22054;51.646;7.078;2023-06-14T10:52:40;25.30;1.00
35613;DHT22;22054;51.646;7.078;2023-06-14T10:55:16;25.50;1.00
35613;DHT22;22054;51.646;7.078;2023-06-14T10:57:48;25.70;1.00
35613;DHT22;22054;51.646;7.078;2023-06-14T11:00:18;26.00;1.00
35613;DHT22;22054;51.646;7.078;2023-06-14T11:05:28;25.70;1.00
35613;DHT22;22054;51.646;7.078;2023-06-14T11:08:09;25.70;1.00
35613;DHT22;22054;51.646;7.078;2023-06-14T11:10:54;25.70;1.00
35613;DHT22;22054;51.646;7.078;2023-06-14T11:13:20;26.00;1.00
35613;DHT22;22054;51.646;7.078;2023-06-14T11:15:50;26.10;1.00
35613;DHT22;22054;51.646;7.078;2023-06-14T11:18:18;26.10;1.00
35613;DHT22;22054;51.646;7.078;2023-06-14T11:20:45;26.40;1.00
35613;DHT22;22054;51.646;7.078;2023-06-14T11:23:11;26.80;1.00
35613;DHT22;22054;51.646;7.078;2023-06-14T11:25:37;27.50;1.00
35613;DHT22;22054;51.646;7.078;2023-06-14T11:28:02;28.70;1.00
35613;DHT22;22054;51.646;7.078;2023-06-14T11:30:28;29.30;1.00
35613;DHT22;22054;51.646;7.078;2023-06-14T11:32:54;30.10;1.00
35613;DHT22;22054;51.646;7.078;2023-06-14T11:35:24;31.10;1.00
35613;DHT22;22054;51.646;7.078;2023-06-14T11:37:53;31.80;1.00
35613;DHT22;22054;51.646;7.078;2023-06-14T11:40:22;32.40;1.00
35613;DHT22;22054;51.646;7.078;2023-06-14T11:42:49;32.20;1.00
35613;DHT22;22054;51.646;7.078;2023-06-14T11:45:15;32.50;1.00
35613;DHT22;22054;51.646;7.078;2023-06-14T11:47:40;33.70;1.00
35613;DHT22;22054;51.646;7.078;2023-06-14T11:50:07;34.80;1.00
35613;DHT22;22054;51.646;7.078;2023-06-14T11:52:33;35.40;1.00
35613;DHT22;22054;51.646;7.078;2023-06-14T11:54:59;35.70;1.00
35613;DHT22;22054;51.646;7.078;2023-06-14T11:57:25;36.40;1.00
35613;DHT22;22054;51.646;7.078;2023-06-14T11:59:54;37.60;1.00
35613;DHT22;22054;51.646;7.078;2023-06-14T12:02:21;37.40;1.00
35613;DHT22;22054;51.646;7.078;2023-06-14T12:04:47;37.10;1.00
35613;DHT22;22054;51.646;7.078;2023-06-14T12:07:16;37.20;1.00
35613;DHT22;22054;51.646;7.078;2023-06-14T12:10:03;36.90;1.00
35613;DHT22;22054;51.646;7.078;2023-06-14T12:12:37;37.40;1.00
35613;DHT22;22054;51.646;7.078;2023-06-14T12:15:04;37.40;1.00
35613;DHT22;22054;51.646;7.078;2023-06-14T12:17:32;37.90;1.00
35613;DHT22;22054;51.646;7.078;2023-06-14T12:19:59;38.70;1.00
35613;DHT22;22054;51.646;7.078;2023-06-14T12:25:23;37.50;1.00
35613;DHT22;22054;51.646;7.078;2023-06-14T12:28:08;36.90;1.00
35613;DHT22;22054;51.646;7.078;2023-06-14T12:30:43;37.20;1.00
35613;DHT22;22054;51.646;7.078;2023-06-14T12:33:31;37.50;1.00
35613;DHT22;22054;51.646;7.078;2023-06-14T12:36:14;38.50;1.00
35613;DHT22;22054;51.646;7.078;2023-06-14T12:38:45;39.40;1.00
35613;DHT22;22054;51.646;7.078;2023-06-14T12:41:39;39.70;1.00
35613;DHT22;22054;51.646;7.078;2023-06-14T12:44:47;39.90;1.00
35613;DHT22;22054;51.646;7.078;2023-06-14T12:47:33;39.80;1.00
35613;DHT22;22054;51.646;7.078;2023-06-14T12:50:05;39.50;1.00
35613;DHT22;22054;51.646;7.078;2023-06-14T12:52:37;38.50;1.00
35613;DHT22;22054;51.646;7.078;2023-06-14T12:55:20;38.50;1.00
35613;DHT22;22054;51.646;7.078;2023-06-14T12:57:59;38.80;1.00
35613;DHT22;22054;51.646;7.078;2023-06-14T13:00:29;39.30;1.00
35613;DHT22;22054;51.646;7.078;2023-06-14T13:03:05;39.40;1.00
35613;DHT22;22054;51.646;7.078;2023-06-14T13:05:45;39.10;1.00
35613;DHT22;22054;51.646;7.078;2023-06-14T13:08:39;39.30;1.00
35613;DHT22;22054;51.646;7.078;2023-06-14T13:11:23;39.70;1.00
35613;DHT22;22054;51.646;7.078;2023-06-14T13:14:14;39.70;1.00
35613;DHT22;22054;51.646;7.078;2023-06-14T13:16:50;40.40;1.00
35613;DHT22;22054;51.646;7.078;2023-06-14T13:19:40;40.90;1.00
35613;DHT22;22054;51.646;7.078;2023-06-14T13:22:53;40.10;1.00
35613;DHT22;22054;51.646;7.078;2023-06-14T13:25:32;40.50;1.00
35613;DHT22;22054;51.646;7.078;2023-06-14T13:28:10;40.00;1.00
35613;DHT22;22054;51.646;7.078;2023-06-14T13:30:44;39.50;1.00
35613;DHT22;22054;51.646;7.078;2023-06-14T13:33:17;39.40;1.00
35613;DHT22;22054;51.646;7.078;2023-06-14T13:36:13;38.90;1.00
35613;DHT22;22054;51.646;7.078;2023-06-14T13:39:04;39.10;1.00
35613;DHT22;22054;51.646;7.078;2023-06-14T13:41:35;39.30;1.00
35613;DHT22;22054;51.646;7.078;2023-06-14T13:44:13;39.60;1.00
35613;DHT22;22054;51.646;7.078;2023-06-14T13:47:24;38.80;1.00
35613;DHT22;22054;51.646;7.078;2023-06-14T13:50:34;38.60;1.00
35613;DHT22;22054;51.646;7.078;2023-06-14T13:57:43;38.90;1.00
35613;DHT22;22054;51.646;7.078;2023-06-14T14:00:32;37.90;1.00
35613;DHT22;22054;51.646;7.078;2023-06-14T14:03:20;38.50;1.00
35613;DHT22;22054;51.646;7.078;2023-06-14T14:06:04;39.50;1.00
35613;DHT22;22054;51.646;7.078;2023-06-14T14:09:16;39.40;1.00
35613;DHT22;22054;51.646;7.078;2023-06-14T14:16:00;39.40;1.00
35613;DHT22;22054;51.646;7.078;2023-06-14T14:18:26;39.40;1.00
35613;DHT22;22054;51.646;7.078;2023-06-14T14:21:08;40.10;1.00
35613;DHT22;22054;51.646;7.078;2023-06-14T14:26:41;39.50;1.00
35613;DHT22;22054;51.646;7.078;2023-06-14T14:29:07;39.80;1.00
35613;DHT22;22054;51.646;7.078;2023-06-14T14:31:34;40.30;1.00
35613;DHT22;22054;51.646;7.078;2023-06-14T14:34:00;39.70;1.00
35613;DHT22;22054;51.646;7.078;2023-06-14T14:36:26;40.10;1.00
35613;DHT22;22054;51.646;7.078;2023-06-14T14:38:54;40.00;1.00
35613;DHT22;22054;51.646;7.078;2023-06-14T14:41:20;39.60;1.00
35613;DHT22;22054;51.646;7.078;2023-06-14T14:43:46;40.10;1.00
35613;DHT22;22054;51.646;7.078;2023-06-14T14:46:11;39.80;1.00
35613;DHT22;22054;51.646;7.078;2023-06-14T14:48:37;40.10;1.00
35613;DHT22;22054;51.646;7.078;2023-06-14T14:51:02;40.50;1.00
35613;DHT22;22054;51.646;7.078;2023-06-14T14:53:28;41.10;1.00
35613;DHT22;22054;51.646;7.078;2023-06-14T14:55:54;40.90;1.00
35613;DHT22;22054;51.646;7.078;2023-06-14T14:58:19;40.50;1.00
35613;DHT22;22054;51.646;7.078;2023-06-14T15:00:45;40.30;1.00
35613;DHT22;22054;51.646;7.078;2023-06-14T15:03:12;39.70;1.00
35613;DHT22;22054;51.646;7.078;2023-06-14T15:05:37;40.10;1.00
35613;DHT22;22054;51.646;7.078;2023-06-14T15:08:03;40.10;1.00
35613;DHT22;22054;51.646;7.078;2023-06-14T15:10:30;40.00;1.00
35613;DHT22;22054;51.646;7.078;2023-06-14T15:12:56;39.00;1.00
35613;DHT22;22054;51.646;7.078;2023-06-14T15:15:22;38.10;1.00
35613;DHT22;22054;51.646;7.078;2023-06-14T15:17:48;36.40;1.00
35613;DHT22;22054;51.646;7.078;2023-06-14T15:20:13;35.00;1.00
35613;DHT22;22054;51.646;7.078;2023-06-14T15:22:40;33.70;1.00
35613;DHT22;22054;51.646;7.078;2023-06-14T15:25:06;32.50;1.00
35613;DHT22;22054;51.646;7.078;2023-06-14T15:27:32;31.40;1.00
35613;DHT22;22054;51.646;7.078;2023-06-14T15:29:59;30.70;1.00
35613;DHT22;22054;51.646;7.078;2023-06-14T15:32:32;30.20;1.00
35613;DHT22;22054;51.646;7.078;2023-06-14T15:34:57;29.90;1.00
35613;DHT22;22054;51.646;7.078;2023-06-14T15:37:23;29.20;1.00
35613;DHT22;22054;51.646;7.078;2023-06-14T15:39:49;28.70;1.00
35613;DHT22;22054;51.646;7.078;2023-06-14T15:42:15;28.10;1.00
35613;DHT22;22054;51.646;7.078;2023-06-14T15:44:41;27.90;1.00
35613;DHT22;22054;51.646;7.078;2023-06-14T15:47:07;27.50;1.00
35613;DHT22;22054;51.646;7.078;2023-06-14T15:49:33;27.50;1.00
35613;DHT22;22054;51.646;7.078;2023-06-14T15:51:59;27.30;1.00
35613;DHT22;22054;51.646;7.078;2023-06-14T15:54:26;27.10;1.00
35613;DHT22;22054;51.646;7.078;2023-06-14T15:56:52;26.90;1.00
35613;DHT22;22054;51.646;7.078;2023-06-14T15:59:18;27.00;1.00
35613;DHT22;22054;51.646;7.078;2023-06-14T16:01:44;27.10;1.00
35613;DHT22;22054;51.646;7.078;2023-06-14T16:04:09;27.00;1.00
35613;DHT22;22054;51.646;7.078;2023-06-14T16:06:35;26.90;1.00
35613;DHT22;22054;51.646;7.078;2023-06-14T16:09:02;26.70;1.00
35613;DHT22;22054;51.646;7.078;2023-06-14T16:11:28;26.60;1.00
35613;DHT22;22054;51.646;7.078;2023-06-14T16:13:54;26.40;1.00
35613;DHT22;22054;51.646;7.078;2023-06-14T16:16:21;26.20;1.00
35613;DHT22;22054;51.646;7.078;2023-06-14T16:18:48;26.30;1.00
35613;DHT22;22054;51.646;7.078;2023-06-14T16:21:14;25.90;1.00
35613;DHT22;22054;51.646;7.078;2023-06-14T16:23:41;25.90;1.00
35613;DHT22;22054;51.646;7.078;2023-06-14T16:26:10;25.80;1.00
35613;DHT22;22054;51.646;7.078;2023-06-14T16:28:38;25.80;1.00
35613;DHT22;22054;51.646;7.078;2023-06-14T16:31:07;26.00;1.00
35613;DHT22;22054;51.646;7.078;2023-06-14T16:33:37;25.90;1.00
35613;DHT22;22054;51.646;7.078;2023-06-14T16:36:03;25.70;1.00